Time;durP1;ratioP1;P1;durP2;ratioP2;P2;SDS_P1;SDS_P2;PMS_P1;PMS_P2;Temp;Humidity;BMP_temperature;BMP_pressure;BME280_temperature;BME280_humidity;BME280_pressure;Samples;Min_cycle;Max_cycle;Signal;HPM_P1;HPM_P2
2021/04/23 00:02:04;;;;;;;0.93;0.87;;;;;;;;;;4999687;28;20412;-71
2021/04/23 00:04:30;;;;;;;1.53;1.00;;;;;;;;;;5010588;28;20573;-70
2021/04/23 00:06:57;;;;;;;1.70;1.43;;;;;;;;;;4995101;28;20414;-70
2021/04/23 00:09:25;;;;;;;3.00;2.10;;;;;;;;;;5002910;28;20504;-71
2021/04/23 00:12:17;;;;;;;1.37;0.73;;;;;;;;;;5009179;28;20429;-72
2021/04/23 00:14:45;;;;;;;0.93;0.83;;;;;;;;;;4994253;28;20425;-71
2021/04/23 00:17:11;;;;;;;1.20;1.00;;;;;;;;;;4997467;28;20405;-69
2021/04/23 00:19:38;;;;;;;1.63;0.93;;;;;;;;;;5005191;28;20453;-70
2021/04/23 00:22:05;;;;;;;1.53;0.70;;;;;;;;;;5013550;28;20424;-71
2021/04/23 00:24:31;;;;;;;14.63;1.23;;;;;;;;;;5015445;28;20409;-71
2021/04/23 00:26:57;;;;;;;3.53;1.43;;;;;;;;;;5018120;28;20405;-71
2021/04/23 00:29:23;;;;;;;0.80;0.77;;;;;;;;;;5010290;28;20603;-70
2021/04/23 00:34:35;;;;;;;1.27;0.63;;;;;;;;;;5011518;28;20444;-70
2021/04/23 00:37:01;;;;;;;1.30;0.70;;;;;;;;;;4995205;28;20405;-71
2021/04/23 00:39:29;;;;;;;1.83;1.73;;;;;;;;;;4995389;28;20502;-70
2021/04/23 00:41:55;;;;;;;0.80;0.80;;;;;;;;;;4995146;28;20490;-71
2021/04/23 00:44:21;;;;;;;0.90;0.70;;;;;;;;;;5006767;28;20421;-71
2021/04/23 00:46:47;;;;;;;0.70;0.40;;;;;;;;;;5015081;28;20406;-71
2021/04/23 00:49:13;;;;;;;4.40;0.90;;;;;;;;;;5014962;28;20464;-72
2021/04/23 00:51:41;;;;;;;1.27;0.83;;;;;;;;;;5016323;28;20393;-70
2021/04/23 00:54:08;;;;;;;1.60;0.90;;;;;;;;;;5010653;28;20417;-70
2021/04/23 00:56:35;;;;;;;1.13;1.03;;;;;;;;;;4997500;28;20489;-71
2021/04/23 00:59:01;;;;;;;1.00;0.70;;;;;;;;;;5027298;28;20470;-70
2021/04/23 01:01:32;;;;;;;1.00;0.80;;;;;;;;;;5036024;28;20456;-71
2021/04/23 01:03:58;;;;;;;0.80;0.70;;;;;;;;;;5009513;28;20471;-71
2021/04/23 01:06:25;;;;;;;2.00;1.10;;;;;;;;;;5014075;28;20901;-70
2021/04/23 01:08:52;;;;;;;1.20;0.77;;;;;;;;;;5013927;28;20488;-69
2021/04/23 01:11:19;;;;;;;2.13;1.40;;;;;;;;;;5014179;28;20404;-70
2021/04/23 01:13:45;;;;;;;0.80;0.70;;;;;;;;;;5013220;28;20904;-70
2021/04/23 01:16:13;;;;;;;0.70;0.50;;;;;;;;;;5012466;28;20422;-69
2021/04/23 01:18:40;;;;;;;0.70;0.43;;;;;;;;;;4994564;28;20433;-70
2021/04/23 01:21:06;;;;;;;1.60;0.73;;;;;;;;;;4993876;28;20454;-71
2021/04/23 01:23:33;;;;;;;0.80;0.70;;;;;;;;;;4993523;28;20417;-70
2021/04/23 01:26:00;;;;;;;0.70;0.40;;;;;;;;;;4994392;28;20482;-71
2021/04/23 01:28:26;;;;;;;1.20;0.90;;;;;;;;;;5006133;28;20486;-70
2021/04/23 01:30:54;;;;;;;0.70;0.60;;;;;;;;;;5014526;28;20405;-70
2021/04/23 01:33:20;;;;;;;0.80;0.77;;;;;;;;;;5014650;28;20401;-71
2021/04/23 01:35:46;;;;;;;0.70;0.50;;;;;;;;;;5014728;28;20397;-70
2021/04/23 01:38:12;;;;;;;2.70;2.10;;;;;;;;;;5013360;28;20448;-71
2021/04/23 01:40:38;;;;;;;0.80;0.50;;;;;;;;;;4999476;28;20908;-72
2021/04/23 01:43:04;;;;;;;0.70;0.50;;;;;;;;;;5000342;28;20414;-71
2021/04/23 01:45:31;;;;;;;0.70;0.50;;;;;;;;;;4999874;28;20414;-70
2021/04/23 01:47:57;;;;;;;1.37;0.60;;;;;;;;;;4999411;28;20405;-71
2021/04/23 01:50:23;;;;;;;0.70;0.50;;;;;;;;;;5009040;28;20460;-69
2021/04/23 01:52:50;;;;;;;1.30;1.20;;;;;;;;;;5020352;28;20903;-69
2021/04/23 01:55:20;;;;;;;1.20;1.10;;;;;;;;;;5019539;28;20423;-70
2021/04/23 01:57:46;;;;;;;0.77;0.53;;;;;;;;;;5026117;28;20407;-71
2021/04/23 02:00:16;;;;;;;4.80;1.37;;;;;;;;;;5040882;28;20831;-70
2021/04/23 02:02:42;;;;;;;8.67;1.47;;;;;;;;;;5025916;28;20416;-73
2021/04/23 02:05:11;;;;;;;2.40;1.63;;;;;;;;;;5018547;28;20393;-71
2021/04/23 02:07:37;;;;;;;0.80;0.63;;;;;;;;;;5019103;28;20471;-67
2021/04/23 02:10:06;;;;;;;0.80;0.50;;;;;;;;;;5020244;28;20978;-70
2021/04/23 02:12:32;;;;;;;1.17;0.80;;;;;;;;;;5018835;28;20504;-70
2021/04/23 02:14:57;;;;;;;0.70;0.40;;;;;;;;;;5007605;28;20562;-71
2021/04/23 02:17:23;;;;;;;1.73;1.10;;;;;;;;;;4999090;28;20406;-70
2021/04/23 02:19:49;;;;;;;0.80;0.70;;;;;;;;;;4998334;28;20441;-69
2021/04/23 02:22:15;;;;;;;0.90;0.70;;;;;;;;;;4998301;28;20446;-70
2021/04/23 02:24:41;;;;;;;0.70;0.60;;;;;;;;;;4997754;28;20480;-70
2021/04/23 02:27:07;;;;;;;1.00;0.90;;;;;;;;;;5006207;28;20403;-70
2021/04/23 02:29:33;;;;;;;1.60;1.10;;;;;;;;;;5017333;28;20484;-71
2021/04/23 02:31:59;;;;;;;2.00;1.57;;;;;;;;;;5021414;28;20401;-72
2021/04/23 02:34:26;;;;;;;0.80;0.50;;;;;;;;;;5017267;28;20444;-70
2021/04/23 02:36:53;;;;;;;1.13;0.90;;;;;;;;;;5017380;28;20419;-72
2021/04/23 02:39:22;;;;;;;0.90;0.80;;;;;;;;;;5005369;28;20447;-70
2021/04/23 02:41:50;;;;;;;0.80;0.60;;;;;;;;;;4999538;28;20373;-71
2021/04/23 02:44:16;;;;;;;0.83;0.70;;;;;;;;;;4999661;28;20379;-73
2021/04/23 02:46:42;;;;;;;2.53;0.80;;;;;;;;;;4998627;28;20475;-73
2021/04/23 02:49:08;;;;;;;0.70;0.40;;;;;;;;;;4996435;28;20968;-73
2021/04/23 02:51:37;;;;;;;1.30;0.90;;;;;;;;;;5019248;28;20922;-72
2021/04/23 02:54:03;;;;;;;1.53;0.87;;;;;;;;;;5018181;28;20411;-72
2021/04/23 02:56:30;;;;;;;1.43;0.60;;;;;;;;;;5015937;28;20406;-70
2021/04/23 02:58:57;;;;;;;1.03;0.70;;;;;;;;;;5033484;28;20434;-69
2021/04/23 03:01:26;;;;;;;0.97;0.87;;;;;;;;;;5001313;28;20468;-71
2021/04/23 03:03:53;;;;;;;27.67;1.27;;;;;;;;;;5013509;28;20474;-71
2021/04/23 03:06:19;;;;;;;0.70;0.50;;;;;;;;;;5016149;28;20814;-71
2021/04/23 03:08:45;;;;;;;0.80;0.60;;;;;;;;;;4997426;28;21031;-72
2021/04/23 03:11:14;;;;;;;1.30;0.77;;;;;;;;;;5010617;28;20502;-71
2021/04/23 03:13:41;;;;;;;0.70;0.50;;;;;;;;;;5013964;28;20470;-71
2021/04/23 03:16:07;;;;;;;0.70;0.50;;;;;;;;;;5009794;28;20422;-70
2021/04/23 03:18:34;;;;;;;0.70;0.60;;;;;;;;;;5013100;23;20429;-70
2021/04/23 03:21:01;;;;;;;1.03;0.93;;;;;;;;;;5002878;28;20420;-71
2021/04/23 03:23:28;;;;;;;0.70;0.57;;;;;;;;;;5012752;28;20413;-71
2021/04/23 03:25:54;;;;;;;4.40;0.93;;;;;;;;;;4993522;28;20893;-70
2021/04/23 03:28:23;;;;;;;0.80;0.60;;;;;;;;;;5003090;28;20405;-70
2021/04/23 03:30:49;;;;;;;0.70;0.60;;;;;;;;;;5010775;28;20394;-70
2021/04/23 03:33:16;;;;;;;2.10;1.20;;;;;;;;;;5012391;28;20407;-70
2021/04/23 03:35:45;;;;;;;2.47;1.60;;;;;;;;;;5010834;28;20908;-71
2021/04/23 03:38:11;;;;;;;1.17;0.90;;;;;;;;;;4996139;28;20388;-72
2021/04/23 03:40:42;;;;;;;2.27;0.73;;;;;;;;;;4992423;28;20497;-71
2021/04/23 03:43:08;;;;;;;0.73;0.50;;;;;;;;;;5006757;28;20416;-70
2021/04/23 03:45:35;;;;;;;0.80;0.70;;;;;;;;;;5008714;28;20507;-72
2021/04/23 03:48:01;;;;;;;1.23;0.80;;;;;;;;;;5005167;28;20488;-72
2021/04/23 03:50:28;;;;;;;1.10;0.73;;;;;;;;;;5021702;22;21045;-70
2021/04/23 03:52:56;;;;;;;0.80;0.67;;;;;;;;;;5012400;28;20811;-70
2021/04/23 03:55:26;;;;;;;0.93;0.90;;;;;;;;;;5011558;28;20424;-70
2021/04/23 03:57:52;;;;;;;1.10;1.00;;;;;;;;;;5009843;28;20515;-70
2021/04/23 04:00:21;;;;;;;0.80;0.70;;;;;;;;;;4980695;28;20512;-70
2021/04/23 04:02:47;;;;;;;0.80;0.50;;;;;;;;;;4980654;28;20465;-70
2021/04/23 04:05:14;;;;;;;1.00;0.57;;;;;;;;;;4991907;28;20837;-70
2021/04/23 04:07:40;;;;;;;0.80;0.60;;;;;;;;;;4991844;28;20917;-71
2021/04/23 04:10:07;;;;;;;3.27;1.37;;;;;;;;;;4989659;28;20450;-70
2021/04/23 04:12:33;;;;;;;0.80;0.80;;;;;;;;;;4980857;28;20514;-70
2021/04/23 04:14:59;;;;;;;0.80;0.70;;;;;;;;;;4972469;28;20903;-71
2021/04/23 04:17:25;;;;;;;1.10;0.70;;;;;;;;;;4994265;28;20945;-70
2021/04/23 04:19:51;;;;;;;1.07;0.80;;;;;;;;;;4998023;28;20444;-70
2021/04/23 04:22:17;;;;;;;7.03;0.93;;;;;;;;;;4994123;28;20418;-70
2021/04/23 04:24:43;;;;;;;0.80;0.50;;;;;;;;;;4999794;28;20418;-70
2021/04/23 04:27:10;;;;;;;0.70;0.50;;;;;;;;;;4999933;28;20407;-70
2021/04/23 04:29:36;;;;;;;0.80;0.60;;;;;;;;;;5000145;28;20539;-68
2021/04/23 04:32:02;;;;;;;0.70;0.50;;;;;;;;;;4975532;28;20447;-70
2021/04/23 04:34:28;;;;;;;0.83;0.70;;;;;;;;;;4970816;28;20909;-70
2021/04/23 04:36:53;;;;;;;4.53;0.70;;;;;;;;;;4972514;28;20451;-70
2021/04/23 04:39:19;;;;;;;1.47;1.13;;;;;;;;;;4971823;28;20409;-70
2021/04/23 04:41:45;;;;;;;1.13;0.70;;;;;;;;;;4988390;28;20778;-70
2021/04/23 04:44:11;;;;;;;0.80;0.50;;;;;;;;;;5001663;28;20500;-71
2021/04/23 04:46:37;;;;;;;0.70;0.40;;;;;;;;;;4993879;28;20848;-71
2021/04/23 04:49:04;;;;;;;0.70;0.50;;;;;;;;;;4994162;28;20496;-70
2021/04/23 04:51:30;;;;;;;0.70;0.50;;;;;;;;;;4995424;28;20421;-68
2021/04/23 04:53:56;;;;;;;1.20;0.60;;;;;;;;;;4991540;28;20411;-71
2021/04/23 04:56:22;;;;;;;1.20;0.67;;;;;;;;;;4991679;28;20552;-70
2021/04/23 04:58:48;;;;;;;1.17;1.07;;;;;;;;;;4987684;28;20876;-69
2021/04/23 05:01:17;;;;;;;1.30;1.20;;;;;;;;;;4989604;28;20485;-69
2021/04/23 05:03:43;;;;;;;0.80;0.57;;;;;;;;;;4995921;28;20403;-70
2021/04/23 05:06:11;;;;;;;0.97;0.63;;;;;;;;;;4999228;28;20417;-71
2021/04/23 05:08:37;;;;;;;1.47;1.13;;;;;;;;;;4990584;28;20831;-71
2021/04/23 05:11:03;;;;;;;3.77;0.70;;;;;;;;;;5001847;28;20492;-70
2021/04/23 05:13:29;;;;;;;0.90;0.50;;;;;;;;;;5012252;28;20413;-70
2021/04/23 05:15:57;;;;;;;1.73;0.67;;;;;;;;;;4998232;28;20493;-70
2021/04/23 05:18:23;;;;;;;0.70;0.60;;;;;;;;;;5007520;28;20418;-70
2021/04/23 05:20:49;;;;;;;0.70;0.50;;;;;;;;;;4976378;28;20402;-70
2021/04/23 05:23:15;;;;;;;3.90;1.70;;;;;;;;;;4993228;28;20790;-70
2021/04/23 05:25:41;;;;;;;4.07;1.33;;;;;;;;;;4996389;28;20175;-70
2021/04/23 05:28:07;;;;;;;1.13;0.77;;;;;;;;;;5003807;28;20974;-70
2021/04/23 05:30:34;;;;;;;0.70;0.50;;;;;;;;;;5003226;28;20454;-70
2021/04/23 05:33:01;;;;;;;0.70;0.50;;;;;;;;;;5002973;28;20471;-70
2021/04/23 05:35:28;;;;;;;0.70;0.60;;;;;;;;;;5001521;28;20418;-69
2021/04/23 05:37:54;;;;;;;1.37;0.70;;;;;;;;;;5003290;28;20436;-71
2021/04/23 05:40:24;;;;;;;0.97;0.93;;;;;;;;;;5003364;28;20432;-72
2021/04/23 05:42:50;;;;;;;2.63;1.93;;;;;;;;;;5009006;28;20413;-71
2021/04/23 05:45:16;;;;;;;0.90;0.63;;;;;;;;;;5007876;28;20409;-70
2021/04/23 05:47:42;;;;;;;0.80;0.50;;;;;;;;;;4998651;28;20449;-70
2021/04/23 05:50:10;;;;;;;2.23;1.40;;;;;;;;;;4997566;28;20460;-69
2021/04/23 05:52:36;;;;;;;1.00;0.70;;;;;;;;;;4999093;28;20455;-69
2021/04/23 05:55:02;;;;;;;0.77;0.63;;;;;;;;;;4989655;28;20418;-69
2021/04/23 05:57:28;;;;;;;0.70;0.40;;;;;;;;;;4983765;28;20449;-70
2021/04/23 05:59:54;;;;;;;0.80;0.63;;;;;;;;;;4986103;28;20812;-70
2021/04/23 06:02:20;;;;;;;0.70;0.50;;;;;;;;;;4984251;28;20465;-70
2021/04/23 06:04:45;;;;;;;0.93;0.90;;;;;;;;;;4988625;28;20428;-69
2021/04/23 06:07:14;;;;;;;0.93;0.83;;;;;;;;;;4988946;28;20423;-71
2021/04/23 06:09:40;;;;;;;1.57;0.83;;;;;;;;;;4984938;28;20463;-69
2021/04/23 06:12:06;;;;;;;2.67;1.40;;;;;;;;;;4988764;28;20421;-71
2021/04/23 06:14:32;;;;;;;1.13;0.70;;;;;;;;;;4988304;28;20466;-70
2021/04/23 06:16:59;;;;;;;0.97;0.87;;;;;;;;;;4993111;28;20416;-71
2021/04/23 06:19:25;;;;;;;0.80;0.70;;;;;;;;;;4991771;28;20426;-72
2021/04/23 06:21:51;;;;;;;1.57;1.10;;;;;;;;;;4991218;28;20651;-71
2021/04/23 06:24:18;;;;;;;2.10;1.23;;;;;;;;;;4989172;28;20427;-71
2021/04/23 06:26:44;;;;;;;0.90;0.83;;;;;;;;;;4984009;28;20445;-71
2021/04/23 06:29:10;;;;;;;0.83;0.70;;;;;;;;;;4988906;28;20462;-70
2021/04/23 06:31:36;;;;;;;1.17;0.60;;;;;;;;;;4983371;28;20420;-70
2021/04/23 06:34:02;;;;;;;1.10;1.00;;;;;;;;;;4989087;28;20409;-70
2021/04/23 06:36:28;;;;;;;1.00;0.60;;;;;;;;;;4988104;28;21860;-71
2021/04/23 06:38:54;;;;;;;0.70;0.70;;;;;;;;;;4988036;28;20529;-71
2021/04/23 06:41:20;;;;;;;19.87;2.20;;;;;;;;;;4993003;28;20410;-72
2021/04/23 06:43:46;;;;;;;1.20;0.80;;;;;;;;;;4991950;28;20801;-72
2021/04/23 06:46:13;;;;;;;3.13;1.67;;;;;;;;;;4993221;28;20413;-73
2021/04/23 06:48:39;;;;;;;0.97;0.87;;;;;;;;;;4991899;28;20446;-72
2021/04/23 06:51:05;;;;;;;4.20;1.47;;;;;;;;;;4990634;28;20586;-72
2021/04/23 06:53:32;;;;;;;0.70;0.50;;;;;;;;;;4984710;28;20460;-71
2021/04/23 06:56:00;;;;;;;0.80;0.70;;;;;;;;;;4990416;28;20866;-70
2021/04/23 06:58:26;;;;;;;0.80;0.73;;;;;;;;;;4993055;28;20450;-70
2021/04/23 07:00:52;;;;;;;1.93;1.43;;;;;;;;;;4998074;28;20411;-71
2021/04/23 07:03:18;;;;;;;1.00;0.90;;;;;;;;;;4990810;28;20392;-71
2021/04/23 07:05:45;;;;;;;1.17;0.90;;;;;;;;;;4989621;28;20389;-71
2021/04/23 07:08:11;;;;;;;0.90;0.80;;;;;;;;;;4984337;28;20518;-71
2021/04/23 07:10:37;;;;;;;4.03;1.37;;;;;;;;;;4978858;28;20481;-70
2021/04/23 07:13:03;;;;;;;0.70;0.50;;;;;;;;;;4982761;28;20420;-71
2021/04/23 07:15:30;;;;;;;1.00;0.70;;;;;;;;;;4984790;28;20394;-71
2021/04/23 07:17:56;;;;;;;2.07;1.43;;;;;;;;;;4988956;28;20462;-72
2021/04/23 07:20:23;;;;;;;3.23;2.93;;;;;;;;;;4981934;28;20784;-71
2021/04/23 07:22:50;;;;;;;0.80;0.60;;;;;;;;;;4987132;28;20463;-72
2021/04/23 07:25:17;;;;;;;0.93;0.83;;;;;;;;;;4980507;28;20948;-73
2021/04/23 07:27:43;;;;;;;2.33;0.70;;;;;;;;;;4984517;28;20439;-72
2021/04/23 07:30:11;;;;;;;0.90;0.67;;;;;;;;;;4978826;28;20821;-72
2021/04/23 07:32:37;;;;;;;9.10;1.03;;;;;;;;;;4984383;28;20425;-72
2021/04/23 07:35:03;;;;;;;3.17;0.97;;;;;;;;;;4985007;28;20467;-72
2021/04/23 07:37:29;;;;;;;0.70;0.50;;;;;;;;;;4985561;28;20978;-71
2021/04/23 07:39:55;;;;;;;1.53;0.80;;;;;;;;;;4984435;28;20586;-71
2021/04/23 07:42:21;;;;;;;2.47;1.20;;;;;;;;;;4983191;28;20955;-71
2021/04/23 07:44:47;;;;;;;1.67;0.77;;;;;;;;;;4989766;28;20931;-72
2021/04/23 07:47:13;;;;;;;0.80;0.77;;;;;;;;;;4993461;28;20457;-72
2021/04/23 07:49:40;;;;;;;4.03;0.77;;;;;;;;;;4998686;28;20912;-71
2021/04/23 07:52:06;;;;;;;0.70;0.50;;;;;;;;;;4988617;28;20473;-71
2021/04/23 07:54:32;;;;;;;1.40;1.20;;;;;;;;;;4990030;28;20771;-72
2021/04/23 07:56:58;;;;;;;0.80;0.60;;;;;;;;;;4988888;28;20901;-71
2021/04/23 07:59:24;;;;;;;0.70;0.57;;;;;;;;;;4978524;28;20407;-72
2021/04/23 08:01:54;;;;;;;0.80;0.67;;;;;;;;;;4977847;28;20421;-73
2021/04/23 08:04:20;;;;;;;0.80;0.63;;;;;;;;;;4988070;28;20457;-72
2021/04/23 08:06:46;;;;;;;0.80;0.77;;;;;;;;;;4995672;28;20412;-72
2021/04/23 08:09:12;;;;;;;4.30;1.13;;;;;;;;;;4984314;28;20476;-72
2021/04/23 08:11:38;;;;;;;1.73;0.60;;;;;;;;;;4985464;28;20417;-73
2021/04/23 08:14:04;;;;;;;0.87;0.60;;;;;;;;;;4980044;28;20413;-72
2021/04/23 08:16:30;;;;;;;1.00;0.80;;;;;;;;;;4989690;28;20412;-72
2021/04/23 08:18:56;;;;;;;1.27;0.83;;;;;;;;;;4984010;28;20429;-72
2021/04/23 08:21:22;;;;;;;0.80;0.73;;;;;;;;;;4979932;28;20749;-71
2021/04/23 08:23:48;;;;;;;1.13;0.90;;;;;;;;;;4989379;28;20426;-71
2021/04/23 08:26:15;;;;;;;1.00;0.60;;;;;;;;;;4995468;28;20422;-72
2021/04/23 08:28:41;;;;;;;0.93;0.80;;;;;;;;;;4978873;28;20497;-73
2021/04/23 08:31:07;;;;;;;1.23;0.90;;;;;;;;;;4999145;28;20384;-73
2021/04/23 08:33:33;;;;;;;0.93;0.70;;;;;;;;;;4999055;28;20515;-72
2021/04/23 08:36:01;;;;;;;1.33;0.93;;;;;;;;;;4996047;28;20491;-73
2021/04/23 08:38:27;;;;;;;0.93;0.83;;;;;;;;;;4990656;28;20438;-72
2021/04/23 08:40:54;;;;;;;3.13;0.90;;;;;;;;;;4988838;28;20915;-72
2021/04/23 08:43:21;;;;;;;1.77;0.70;;;;;;;;;;4989414;28;20916;-71
2021/04/23 08:45:47;;;;;;;2.60;1.07;;;;;;;;;;4978717;28;20429;-72
2021/04/23 08:48:13;;;;;;;1.77;1.07;;;;;;;;;;4969936;28;20440;-72
2021/04/23 08:50:39;;;;;;;1.00;0.83;;;;;;;;;;4972603;28;20976;-72
2021/04/23 08:53:06;;;;;;;0.80;0.57;;;;;;;;;;4987786;28;20450;-72
2021/04/23 08:55:32;;;;;;;10.23;1.07;;;;;;;;;;4989177;28;20796;-72
2021/04/23 08:57:58;;;;;;;2.10;0.70;;;;;;;;;;4994345;28;20432;-72
2021/04/23 09:00:25;;;;;;;2.20;1.30;;;;;;;;;;4993609;28;20418;-72
2021/04/23 09:02:51;;;;;;;1.17;0.83;;;;;;;;;;4988819;28;20475;-72
2021/04/23 09:05:17;;;;;;;0.90;0.80;;;;;;;;;;4989501;28;20449;-72
2021/04/23 09:07:58;;;;;;;2.10;0.80;;;;;;;;;;4978467;28;20442;-72
2021/04/23 09:10:24;;;;;;;1.10;0.77;;;;;;;;;;4990495;28;20456;-73
2021/04/23 09:13:04;;;;;;;1.17;0.60;;;;;;;;;;4999337;28;20429;-72
2021/04/23 09:15:30;;;;;;;0.90;0.73;;;;;;;;;;5002800;28;20409;-71
2021/04/23 09:18:06;;;;;;;1.07;0.87;;;;;;;;;;5000171;28;20448;-72
2021/04/23 09:20:32;;;;;;;1.00;0.90;;;;;;;;;;4997000;28;20446;-72
2021/04/23 09:23:07;;;;;;;1.13;0.90;;;;;;;;;;4975651;28;20622;-72
2021/04/23 09:25:40;;;;;;;1.57;0.70;;;;;;;;;;4969822;28;20490;-73
2021/04/23 09:28:06;;;;;;;1.17;0.77;;;;;;;;;;4984259;28;20435;-71
2021/04/23 09:30:32;;;;;;;2.03;1.10;;;;;;;;;;4990795;28;20510;-72
2021/04/23 09:32:58;;;;;;;2.33;0.60;;;;;;;;;;4990257;28;20412;-72
2021/04/23 09:35:24;;;;;;;5.80;1.10;;;;;;;;;;5005737;28;20493;-71
2021/04/23 09:37:52;;;;;;;1.43;1.30;;;;;;;;;;4987133;28;20437;-72
2021/04/23 09:40:29;;;;;;;0.80;0.73;;;;;;;;;;4986842;28;20395;-72
2021/04/23 09:42:56;;;;;;;5.80;1.23;;;;;;;;;;4979401;28;20474;-70
2021/04/23 09:45:26;;;;;;;2.50;1.00;;;;;;;;;;4971042;28;20793;-71
2021/04/23 09:47:54;;;;;;;1.87;1.23;;;;;;;;;;4985573;28;20464;-72
2021/04/23 09:50:20;;;;;;;0.90;0.67;;;;;;;;;;4980370;28;20461;-71
2021/04/23 09:52:51;;;;;;;2.03;1.13;;;;;;;;;;5002805;28;20395;-70
2021/04/23 09:55:18;;;;;;;0.80;0.50;;;;;;;;;;4987864;28;20471;-73
2021/04/23 09:57:55;;;;;;;3.43;2.00;;;;;;;;;;4985056;28;20435;-71
2021/04/23 10:00:25;;;;;;;2.60;0.80;;;;;;;;;;4990244;28;20432;-72
2021/04/23 10:02:54;;;;;;;4.73;0.80;;;;;;;;;;4991405;28;20377;-72
2021/04/23 10:05:37;;;;;;;1.10;0.97;;;;;;;;;;4982981;28;20396;-71
2021/04/23 10:08:07;;;;;;;1.10;1.00;;;;;;;;;;4988693;28;20450;-72
2021/04/23 10:10:33;;;;;;;0.80;0.67;;;;;;;;;;4989824;28;20977;-71
2021/04/23 10:13:03;;;;;;;1.57;1.10;;;;;;;;;;4972486;28;20859;-72
2021/04/23 10:15:34;;;;;;;5.03;1.13;;;;;;;;;;4975828;28;21210;-69
2021/04/23 10:18:01;;;;;;;1.17;1.07;;;;;;;;;;4988014;28;20488;-71
2021/04/23 10:20:29;;;;;;;2.50;1.57;;;;;;;;;;4998131;28;20428;-70
2021/04/23 10:22:55;;;;;;;0.93;0.83;;;;;;;;;;5001140;28;20444;-71
2021/04/23 10:25:22;;;;;;;1.10;0.90;;;;;;;;;;4987754;28;20396;-70
2021/04/23 10:27:49;;;;;;;0.80;0.70;;;;;;;;;;4987657;28;20445;-71
2021/04/23 10:32:46;;;;;;;1.07;0.97;;;;;;;;;;5023159;28;20481;-70
2021/04/23 10:35:12;;;;;;;2.80;0.83;;;;;;;;;;5025769;28;20394;-70
2021/04/23 10:37:38;;;;;;;0.83;0.67;;;;;;;;;;5021668;28;20400;-69
2021/04/23 10:40:05;;;;;;;7.90;1.40;;;;;;;;;;5021567;28;21454;-70
2021/04/23 10:42:48;;;;;;;1.83;1.47;;;;;;;;;;5032968;28;20398;-68
2021/04/23 10:45:14;;;;;;;1.10;0.93;;;;;;;;;;5026870;28;20390;-69
2021/04/23 10:47:40;;;;;;;3.33;1.30;;;;;;;;;;5029421;28;20992;-68
2021/04/23 10:50:10;;;;;;;0.80;0.50;;;;;;;;;;5029683;28;20535;-69
2021/04/23 10:52:56;;;;;;;2.07;1.30;;;;;;;;;;5027968;28;20400;-70
2021/04/23 10:55:35;;;;;;;1.37;0.73;;;;;;;;;;5029028;28;20417;-70
2021/04/23 10:58:01;;;;;;;6.50;1.37;;;;;;;;;;5023846;28;20419;-69
2021/04/23 11:00:35;;;;;;;3.73;1.83;;;;;;;;;;5021018;28;20432;-69
2021/04/23 11:03:20;;;;;;;1.83;1.43;;;;;;;;;;5024305;28;20736;-69
2021/04/23 11:05:46;;;;;;;2.03;1.23;;;;;;;;;;5024865;28;20769;-69
2021/04/23 11:08:12;;;;;;;1.00;0.70;;;;;;;;;;5029856;28;20436;-71
2021/04/23 11:10:57;;;;;;;0.70;0.50;;;;;;;;;;5026018;28;20456;-70
2021/04/23 11:13:24;;;;;;;3.67;1.30;;;;;;;;;;5030500;28;20412;-70
2021/04/23 11:16:10;;;;;;;0.80;0.60;;;;;;;;;;5025785;28;20402;-70
2021/04/23 11:18:36;;;;;;;2.83;0.80;;;;;;;;;;5028124;28;20473;-69
2021/04/23 11:21:30;;;;;;;1.03;0.77;;;;;;;;;;5021620;28;20455;-70
2021/04/23 11:24:15;;;;;;;1.23;0.80;;;;;;;;;;5025023;28;20404;-70
2021/04/23 11:27:06;;;;;;;3.23;3.03;;;;;;;;;;5029782;28;20404;-69
2021/04/23 11:29:32;;;;;;;0.70;0.50;;;;;;;;;;5029257;28;20876;-70
2021/04/23 11:32:07;;;;;;;1.00;0.80;;;;;;;;;;5033368;28;20776;-70
2021/04/23 11:34:36;;;;;;;1.00;0.80;;;;;;;;;;5032115;28;20383;-70
2021/04/23 11:37:03;;;;;;;1.40;1.00;;;;;;;;;;5032043;28;20394;-70
2021/04/23 11:39:33;;;;;;;2.50;1.43;;;;;;;;;;5029806;28;20395;-70
2021/04/23 11:42:08;;;;;;;2.37;2.17;;;;;;;;;;5027969;28;20399;-71
2021/04/23 11:44:46;;;;;;;0.80;0.60;;;;;;;;;;5029022;28;20408;-69
2021/04/23 11:47:12;;;;;;;3.47;1.27;;;;;;;;;;5029885;28;20514;-69
2021/04/23 11:49:38;;;;;;;2.37;1.17;;;;;;;;;;5031268;28;20438;-69
2021/04/23 11:52:04;;;;;;;1.33;0.93;;;;;;;;;;5031498;28;20458;-69
2021/04/23 11:54:35;;;;;;;1.87;0.83;;;;;;;;;;5031532;28;20403;-69
2021/04/23 11:57:01;;;;;;;1.80;1.67;;;;;;;;;;5031009;28;20410;-69
2021/04/23 11:59:27;;;;;;;0.80;0.70;;;;;;;;;;5038075;28;20433;-69
2021/04/23 12:01:53;;;;;;;4.00;0.93;;;;;;;;;;5030302;28;20978;-69
2021/04/23 12:04:38;;;;;;;2.13;1.07;;;;;;;;;;5031006;28;20447;-69
2021/04/23 12:07:04;;;;;;;1.33;1.23;;;;;;;;;;5030463;28;20494;-68
2021/04/23 12:09:30;;;;;;;2.60;1.13;;;;;;;;;;5029330;28;20430;-69
2021/04/23 12:12:06;;;;;;;1.30;1.00;;;;;;;;;;5030447;28;20501;-69
2021/04/23 12:14:42;;;;;;;1.00;0.80;;;;;;;;;;5030710;28;20521;-71
2021/04/23 12:17:08;;;;;;;0.80;0.57;;;;;;;;;;5031011;28;20919;-71
2021/04/23 12:19:34;;;;;;;1.43;1.07;;;;;;;;;;5030325;28;20433;-69
2021/04/23 12:22:00;;;;;;;4.30;1.43;;;;;;;;;;5030365;28;20921;-72
2021/04/23 12:24:26;;;;;;;0.70;0.50;;;;;;;;;;5030993;28;20447;-71
2021/04/23 12:26:52;;;;;;;1.50;0.93;;;;;;;;;;5030670;28;20831;-69
2021/04/23 12:29:25;;;;;;;0.80;0.60;;;;;;;;;;5020554;28;20435;-69
2021/04/23 12:31:51;;;;;;;1.10;0.60;;;;;;;;;;5014316;28;20712;-68
2021/04/23 12:34:17;;;;;;;4.83;1.00;;;;;;;;;;5030803;28;20377;-70
2021/04/23 12:36:45;;;;;;;0.83;0.80;;;;;;;;;;5030735;28;20396;-69
2021/04/23 12:39:24;;;;;;;2.13;1.00;;;;;;;;;;5029956;28;20390;-69
2021/04/23 12:41:54;;;;;;;5.07;1.33;;;;;;;;;;5030370;28;20917;-70
2021/04/23 12:44:25;;;;;;;1.10;0.80;;;;;;;;;;5028940;28;20408;-70
2021/04/23 12:46:55;;;;;;;1.00;0.60;;;;;;;;;;5029930;28;20420;-70
2021/04/23 12:49:23;;;;;;;2.90;1.43;;;;;;;;;;5018132;28;20427;-70
2021/04/23 12:51:51;;;;;;;0.90;0.70;;;;;;;;;;5008888;28;20442;-71
2021/04/23 12:54:19;;;;;;;0.90;0.80;;;;;;;;;;5024106;28;20386;-70
2021/04/23 12:56:49;;;;;;;1.97;1.00;;;;;;;;;;5029597;28;20458;-69
2021/04/23 12:59:35;;;;;;;2.60;1.20;;;;;;;;;;5047811;28;21072;-70
2021/04/23 13:02:01;;;;;;;1.93;1.23;;;;;;;;;;5044043;28;20740;-70
2021/04/23 13:04:27;;;;;;;0.87;0.77;;;;;;;;;;5029891;28;20410;-71
2021/04/23 13:06:54;;;;;;;2.80;1.37;;;;;;;;;;5030634;28;20451;-70
2021/04/23 13:09:28;;;;;;;1.10;0.87;;;;;;;;;;5035991;28;20448;-70
2021/04/23 13:11:54;;;;;;;1.67;0.90;;;;;;;;;;5030169;28;20414;-68
2021/04/23 13:14:22;;;;;;;2.30;1.10;;;;;;;;;;5030309;28;20741;-68
2021/04/23 13:17:08;;;;;;;0.83;0.70;;;;;;;;;;5030572;28;20515;-69
2021/04/23 13:19:35;;;;;;;1.40;0.90;;;;;;;;;;5014763;28;20391;-70
2021/04/23 13:22:01;;;;;;;2.17;0.90;;;;;;;;;;5018602;28;20471;-68
2021/04/23 13:24:27;;;;;;;3.00;1.07;;;;;;;;;;5020712;28;20411;-69
2021/04/23 13:26:53;;;;;;;2.20;0.80;;;;;;;;;;5022355;28;20386;-69
2021/04/23 13:29:19;;;;;;;2.60;1.47;;;;;;;;;;5029907;28;20426;-69
2021/04/23 13:31:45;;;;;;;1.33;1.10;;;;;;;;;;5030324;28;20574;-68
2021/04/23 13:34:12;;;;;;;1.50;1.03;;;;;;;;;;5033430;28;20419;-69
2021/04/23 13:37:04;;;;;;;1.10;0.73;;;;;;;;;;5033716;28;20479;-67
2021/04/23 13:39:30;;;;;;;2.40;1.90;;;;;;;;;;5033621;28;20729;-67
2021/04/23 13:41:56;;;;;;;2.13;1.00;;;;;;;;;;5033901;28;20423;-67
2021/04/23 13:44:23;;;;;;;2.60;0.90;;;;;;;;;;5028499;28;20502;-68
2021/04/23 13:46:49;;;;;;;1.10;0.70;;;;;;;;;;5024089;28;20751;-66
2021/04/23 13:49:27;;;;;;;0.90;0.80;;;;;;;;;;5030026;28;20509;-71
2021/04/23 13:51:58;;;;;;;1.00;0.80;;;;;;;;;;5033339;28;20993;-71
2021/04/23 13:54:25;;;;;;;0.80;0.60;;;;;;;;;;5033674;28;20732;-68
2021/04/23 13:56:53;;;;;;;2.23;1.00;;;;;;;;;;5033346;28;20437;-69
2021/04/23 13:59:26;;;;;;;1.03;0.90;;;;;;;;;;5047982;28;20435;-71
2021/04/23 14:01:57;;;;;;;0.80;0.60;;;;;;;;;;5029482;28;20962;-69
2021/04/23 14:04:24;;;;;;;1.07;0.97;;;;;;;;;;5024320;28;20988;-70
2021/04/23 14:06:51;;;;;;;1.00;0.80;;;;;;;;;;5025357;28;20423;-70
2021/04/23 14:09:18;;;;;;;4.20;1.10;;;;;;;;;;5031174;28;20453;-70
2021/04/23 14:11:47;;;;;;;1.87;1.23;;;;;;;;;;5018777;28;20428;-69
2021/04/23 14:14:14;;;;;;;1.10;1.00;;;;;;;;;;5033243;28;20510;-69
2021/04/23 14:16:41;;;;;;;4.10;1.63;;;;;;;;;;5022985;28;20481;-70
2021/04/23 14:19:07;;;;;;;0.97;0.73;;;;;;;;;;5026482;28;20764;-68
2021/04/23 14:21:34;;;;;;;3.43;1.77;;;;;;;;;;5025471;28;20409;-69
2021/04/23 14:24:00;;;;;;;1.53;1.10;;;;;;;;;;5023273;28;20386;-70
2021/04/23 14:26:26;;;;;;;0.90;0.63;;;;;;;;;;5033945;28;20474;-70
2021/04/23 14:28:53;;;;;;;5.27;0.93;;;;;;;;;;5024394;28;20413;-72
2021/04/23 14:31:20;;;;;;;1.30;0.83;;;;;;;;;;5032259;28;20517;-68
2021/04/23 14:33:46;;;;;;;0.90;0.70;;;;;;;;;;5033030;28;20402;-69
2021/04/23 14:36:13;;;;;;;0.80;0.60;;;;;;;;;;5032600;28;20466;-69
2021/04/23 14:38:39;;;;;;;1.60;0.93;;;;;;;;;;5032795;28;20411;-68
2021/04/23 14:41:06;;;;;;;0.70;0.50;;;;;;;;;;5031754;28;20443;-68
2021/04/23 14:43:33;;;;;;;1.00;0.60;;;;;;;;;;5032791;28;20386;-69
2021/04/23 14:45:58;;;;;;;2.60;1.03;;;;;;;;;;5033015;28;20833;-69
2021/04/23 14:48:25;;;;;;;3.83;1.30;;;;;;;;;;5021939;28;20416;-71
2021/04/23 14:50:52;;;;;;;0.90;0.80;;;;;;;;;;5012840;28;20460;-69
2021/04/23 14:53:18;;;;;;;0.80;0.70;;;;;;;;;;5023132;28;20415;-69